Time,TemperatureF,DewpointF,PressureIn,WindDirection,WindDirectionDegrees,WindSpeedMPH,WindSpeedGustMPH,Humidity,HourlyPrecipIn,Conditions,Clouds,dailyrainin,SolarRadiationWatts/m^2,SoftwareType,DateUTC
2014-02-08 00:02:00,-12.0,-18.0,-100.00,North,-999,0.0,1.0,72,0.00,,,0.00,0.000000,,2014-02-08 06:02:00,
2014-02-08 00:43:00,-13.0,-20.0,-100.00,North,-999,0.0,0.0,70,0.00,,,0.00,0.000000,,2014-02-08 06:43:00,
2014-02-08 00:52:00,-13.0,-20.0,-100.00,North,-999,0.0,0.0,70,0.00,,,0.00,0.000000,,2014-02-08 06:52:00,
2014-02-08 01:02:00,-13.0,-20.0,-100.00,North,-999,0.0,0.0,70,0.00,,,0.00,0.000000,,2014-02-08 07:02:00,
2014-02-08 01:42:00,-16.0,-23.0,-100.00,North,-999,0.0,0.0,68,0.00,,,-99.99,0.000000,,2014-02-08 07:42:00,
2014-02-08 01:52:00,-16.0,-23.0,-100.00,North,-999,0.0,0.0,68,0.00,,,-99.99,0.000000,,2014-02-08 07:52:00,
2014-02-08 02:02:00,-16.0,-23.0,-100.00,North,-999,0.0,0.0,68,0.00,,,-99.99,0.000000,,2014-02-08 08:02:00,
2014-02-08 02:22:00,-19.0,-27.0,-100.00,North,-999,0.0,0.0,65,0.00,,,0.00,0.000000,,2014-02-08 08:22:00,
2014-02-08 02:32:00,-19.0,-27.0,-100.00,North,-999,0.0,0.0,65,0.00,,,0.00,0.000000,,2014-02-08 08:32:00,
2014-02-08 02:42:00,-19.0,-27.0,-100.00,North,-999,0.0,0.0,65,0.00,,,0.00,0.000000,,2014-02-08 08:42:00,
2014-02-08 03:03:00,-19.0,-27.0,-100.00,North,-999,0.0,1.0,64,-99.99,,,0.00,0.000000,,2014-02-08 09:03:00,
2014-02-08 03:44:00,-19.0,-27.0,-100.00,North,-999,0.0,1.0,64,-99.99,,,0.00,0.000000,,2014-02-08 09:44:00,
2014-02-08 03:53:00,-19.0,-27.0,-100.00,North,-999,0.0,1.0,64,-99.99,,,0.00,0.000000,,2014-02-08 09:53:00,
2014-02-08 04:43:00,-13.0,-20.0,-100.00,North,-999,0.0,0.0,69,0.00,,,0.00,0.000000,,2014-02-08 10:43:00,
2014-02-08 04:53:00,-13.0,-20.0,-100.00,North,-999,0.0,0.0,69,0.00,,,0.00,0.000000,,2014-02-08 10:53:00,
2014-02-08 05:02:00,-13.0,-20.0,-100.00,North,-999,0.0,0.0,69,0.00,,,0.00,0.000000,,2014-02-08 11:02:00,
2014-02-08 05:43:00,-10.0,-17.0,-100.00,North,-999,0.0,0.0,70,0.00,,,0.00,0.000000,,2014-02-08 11:43:00,
2014-02-08 05:52:00,-10.0,-17.0,-100.00,North,-999,0.0,0.0,70,0.00,,,0.00,0.000000,,2014-02-08 11:52:00,
2014-02-08 06:02:00,-10.0,-17.0,-100.00,North,-999,0.0,0.0,70,0.00,,,0.00,0.000000,,2014-02-08 12:02:00,
2014-02-08 06:22:00,-11.0,-19.0,-100.00,North,-999,0.0,0.0,67,0.00,,,0.00,0.000000,,2014-02-08 12:22:00,
2014-02-08 06:32:00,-11.0,-19.0,-100.00,North,-999,0.0,0.0,67,0.00,,,0.00,0.000000,,2014-02-08 12:32:00,
2014-02-08 06:42:00,-11.0,-19.0,-100.00,North,-999,0.0,0.0,67,0.00,,,0.00,0.000000,,2014-02-08 12:42:00,
2014-02-08 06:52:00,-11.0,-19.0,-100.00,North,-999,0.0,0.0,67,0.00,,,0.00,0.000000,,2014-02-08 12:52:00,
2014-02-08 07:01:00,-11.0,-19.0,-100.00,North,-999,0.0,0.0,67,0.00,,,0.00,0.000000,,2014-02-08 13:01:00,
2014-02-08 07:22:00,-10.0,-17.0,-100.00,North,-999,0.0,1.0,70,0.00,,,0.00,0.000000,,2014-02-08 13:22:00,
2014-02-08 07:32:00,-10.0,-17.0,-100.00,North,-999,0.0,1.0,70,0.00,,,0.00,0.000000,,2014-02-08 13:32:00,
2014-02-08 07:42:00,-10.0,-17.0,-100.00,North,-999,0.0,1.0,70,0.00,,,0.00,0.000000,,2014-02-08 13:42:00,
2014-02-08 07:52:00,-10.0,-17.0,-100.00,North,-999,0.0,1.0,70,0.00,,,0.00,0.000000,,2014-02-08 13:52:00,
2014-02-08 08:01:00,-10.0,-17.0,-100.00,North,-999,0.0,1.0,70,0.00,,,0.00,0.000000,,2014-02-08 14:01:00,
2014-02-08 08:42:00,-12.0,-19.0,-100.00,North,-999,0.0,1.0,69,0.00,,,-99.99,17.000000,,2014-02-08 14:42:00,
2014-02-08 08:52:00,-12.0,-19.0,-100.00,North,-999,0.0,1.0,69,0.00,,,-99.99,17.000000,,2014-02-08 14:52:00,
2014-02-08 09:02:00,-12.0,-19.0,-100.00,North,-999,0.0,1.0,69,0.00,,,-99.99,17.000000,,2014-02-08 15:02:00,
2014-02-08 10:03:00,11.0,-2.0,-100.00,WSW,238,3.0,7.0,56,-99.99,,,0.00,341.000000,,2014-02-08 16:03:00,
2014-02-08 10:43:00,11.0,-2.0,-100.00,WSW,238,3.0,7.0,56,-99.99,,,0.00,341.000000,,2014-02-08 16:43:00,
2014-02-08 10:53:00,11.0,-2.0,-100.00,WSW,238,3.0,7.0,56,-99.99,,,0.00,341.000000,,2014-02-08 16:53:00,
2014-02-08 11:43:00,14.0,0.0,-100.00,SSW,212,3.0,7.0,52,0.00,,,0.00,443.000000,,2014-02-08 17:43:00,
2014-02-08 11:53:00,14.0,0.0,-100.00,SSW,212,3.0,7.0,52,0.00,,,0.00,443.000000,,2014-02-08 17:53:00,
2014-02-08 12:02:00,14.0,0.0,-100.00,SSW,212,3.0,7.0,52,0.00,,,0.00,443.000000,,2014-02-08 18:02:00,
2014-02-08 12:22:00,16.0,1.0,-100.00,SW,234,2.0,9.0,50,0.00,,,0.00,464.000000,,2014-02-08 18:22:00,
2014-02-08 12:32:00,16.0,1.0,-100.00,SW,234,2.0,9.0,50,0.00,,,0.00,464.000000,,2014-02-08 18:32:00,
2014-02-08 12:43:00,16.0,1.0,-100.00,SW,234,2.0,9.0,50,0.00,,,0.00,464.000000,,2014-02-08 18:43:00,
2014-02-08 12:52:00,16.0,1.0,-100.00,SW,234,2.0,9.0,50,0.00,,,0.00,464.000000,,2014-02-08 18:52:00,
2014-02-08 13:01:00,16.0,1.0,-100.00,SW,234,2.0,9.0,50,0.00,,,0.00,464.000000,,2014-02-08 19:01:00,
2014-02-08 13:22:00,17.0,1.0,-100.00,SSW,211,5.0,10.0,48,0.00,,,0.00,521.000000,,2014-02-08 19:22:00,
2014-02-08 13:33:00,17.0,1.0,-100.00,SSW,211,5.0,10.0,48,0.00,,,0.00,521.000000,,2014-02-08 19:33:00,
2014-02-08 13:42:00,17.0,1.0,-100.00,SSW,211,5.0,10.0,48,0.00,,,0.00,521.000000,,2014-02-08 19:42:00,
2014-02-08 13:52:00,17.0,1.0,-100.00,SSW,211,5.0,10.0,48,0.00,,,0.00,521.000000,,2014-02-08 19:52:00,
2014-02-08 14:02:00,17.0,1.0,-100.00,SSW,211,5.0,10.0,48,0.00,,,0.00,521.000000,,2014-02-08 20:02:00,
2014-02-08 14:42:00,18.0,3.0,-100.00,SW,236,3.0,8.0,50,0.00,,,0.00,352.000000,,2014-02-08 20:42:00,
2014-02-08 14:52:00,18.0,3.0,-100.00,SW,236,3.0,8.0,50,0.00,,,0.00,352.000000,,2014-02-08 20:52:00,
2014-02-08 15:02:00,18.0,3.0,-100.00,SW,236,3.0,8.0,50,0.00,,,0.00,352.000000,,2014-02-08 21:02:00,
2014-02-08 15:03:00,19.0,2.0,-100.00,WSW,254,3.0,7.0,46,0.00,,,0.00,324.000000,,2014-02-08 21:03:00,
2014-02-08 15:43:00,19.0,2.0,-100.00,WSW,254,3.0,7.0,46,0.00,,,0.00,324.000000,,2014-02-08 21:43:00,
2014-02-08 15:53:00,19.0,2.0,-100.00,WSW,254,3.0,7.0,46,0.00,,,0.00,324.000000,,2014-02-08 21:53:00,
2014-02-08 16:23:00,17.0,1.0,-100.00,West,276,3.0,8.0,49,0.00,,,0.00,152.000000,,2014-02-08 22:23:00,
2014-02-08 16:32:00,17.0,1.0,-100.00,West,276,3.0,8.0,49,0.00,,,0.00,152.000000,,2014-02-08 22:32:00,
2014-02-08 16:43:00,17.0,1.0,-100.00,West,276,3.0,8.0,49,0.00,,,0.00,152.000000,,2014-02-08 22:43:00,
2014-02-08 16:53:00,17.0,1.0,-100.00,West,276,3.0,8.0,49,0.00,,,0.00,152.000000,,2014-02-08 22:53:00,
2014-02-08 17:02:00,17.0,1.0,-100.00,West,276,3.0,8.0,49,0.00,,,0.00,152.000000,,2014-02-08 23:02:00,
2014-02-08 17:03:00,13.0,0.0,-100.00,SW,218,3.0,6.0,55,0.00,,,0.00,44.000000,,2014-02-08 23:03:00,
2014-02-08 17:43:00,13.0,0.0,-100.00,SW,218,3.0,6.0,55,0.00,,,0.00,44.000000,,2014-02-08 23:43:00,
2014-02-08 17:53:00,13.0,0.0,-100.00,SW,218,3.0,6.0,55,0.00,,,0.00,44.000000,,2014-02-08 23:53:00,
2014-02-08 18:22:00,10.0,-2.0,-100.00,SW,219,1.0,6.0,58,0.00,,,0.00,3.000000,,2014-02-09 00:22:00,
2014-02-08 18:32:00,10.0,-2.0,-100.00,SW,219,1.0,6.0,58,0.00,,,0.00,3.000000,,2014-02-09 00:32:00,
2014-02-08 18:42:00,10.0,-2.0,-100.00,SW,219,1.0,6.0,58,0.00,,,0.00,3.000000,,2014-02-09 00:42:00,
2014-02-08 18:52:00,10.0,-2.0,-100.00,SW,219,1.0,6.0,58,0.00,,,0.00,3.000000,,2014-02-09 00:52:00,
2014-02-08 19:01:00,10.0,-2.0,-100.00,SW,219,1.0,6.0,58,0.00,,,0.00,3.000000,,2014-02-09 01:01:00,
2014-02-08 19:22:00,5.0,-3.0,-100.00,North,-999,0.0,3.0,68,0.00,,,0.00,0.000000,,2014-02-09 01:22:00,
2014-02-08 19:32:00,5.0,-3.0,-100.00,North,-999,0.0,3.0,68,0.00,,,0.00,0.000000,,2014-02-09 01:32:00,
2014-02-08 19:42:00,5.0,-3.0,-100.00,North,-999,0.0,3.0,68,0.00,,,0.00,0.000000,,2014-02-09 01:42:00,
2014-02-08 19:52:00,5.0,-3.0,-100.00,North,-999,0.0,3.0,68,0.00,,,0.00,0.000000,,2014-02-09 01:52:00,
2014-02-08 20:02:00,5.0,-3.0,-100.00,North,-999,0.0,3.0,68,0.00,,,0.00,0.000000,,2014-02-09 02:02:00,
2014-02-08 20:42:00,0.0,-6.0,-100.00,North,-999,0.0,1.0,76,0.00,,,0.00,0.000000,,2014-02-09 02:42:00,
2014-02-08 20:52:00,0.0,-6.0,-100.00,North,-999,0.0,1.0,76,0.00,,,0.00,0.000000,,2014-02-09 02:52:00,
2014-02-08 21:02:00,0.0,-6.0,-100.00,North,-999,0.0,1.0,76,0.00,,,0.00,0.000000,,2014-02-09 03:02:00,
2014-02-08 21:03:00,-3.0,-8.0,-100.00,North,-999,0.0,0.0,77,0.00,,,0.00,0.000000,,2014-02-09 03:03:00,
2014-02-08 21:22:00,-3.0,-8.0,-100.00,North,-999,0.0,0.0,77,0.00,,,0.00,0.000000,,2014-02-09 03:22:00,
2014-02-08 21:34:00,-3.0,-8.0,-100.00,North,-999,0.0,0.0,77,0.00,,,0.00,0.000000,,2014-02-09 03:34:00,
2014-02-08 21:44:00,-3.0,-8.0,-100.00,North,-999,0.0,0.0,77,0.00,,,0.00,0.000000,,2014-02-09 03:44:00,
2014-02-08 21:53:00,-3.0,-8.0,-100.00,North,-999,0.0,0.0,77,0.00,,,0.00,0.000000,,2014-02-09 03:53:00,
2014-02-08 22:03:00,-4.0,-9.0,-100.00,North,-999,0.0,0.0,78,0.00,,,0.00,0.000000,,2014-02-09 04:03:00,
2014-02-08 22:23:00,-4.0,-9.0,-100.00,North,-999,0.0,0.0,78,0.00,,,0.00,0.000000,,2014-02-09 04:23:00,
2014-02-08 22:33:00,-4.0,-9.0,-100.00,North,-999,0.0,0.0,78,0.00,,,0.00,0.000000,,2014-02-09 04:33:00,
2014-02-08 22:43:00,-4.0,-9.0,-100.00,North,-999,0.0,0.0,78,0.00,,,0.00,0.000000,,2014-02-09 04:43:00,
2014-02-08 22:53:00,-4.0,-9.0,-100.00,North,-999,0.0,0.0,78,0.00,,,0.00,0.000000,,2014-02-09 04:53:00,
2014-02-08 23:23:00,-6.0,-12.0,-100.00,North,-999,0.0,0.0,75,0.00,,,0.00,0.000000,,2014-02-09 05:23:00,
2014-02-08 23:33:00,-6.0,-12.0,-100.00,North,-999,0.0,0.0,75,0.00,,,0.00,0.000000,,2014-02-09 05:33:00,
2014-02-08 23:52:00,-6.0,-12.0,-100.00,North,-999,0.0,0.0,75,0.00,,,0.00,0.000000,,2014-02-09 05:52:00,